Results by/Résultats par Info:[email protected] Phone: (613)260-0994

                                     K-TOWN TRIATHLON

                                  Sunday August 6th, 2000
                           Confederation Park, Kingston, Ontario

                          Overall Results - Long Course Triathlon

  -----FINAL----- ----------------------- ------------ -------------------- ----            2 km                       56.5 km                   15 km
                                                       Category                     --------SWIM----------    ----------BIKE--------    ---------RUN-----------
    Pos     Time  Name                    City         Plc/Total Category     #      Cat  Ovr  Time  /100m     Cat Ovr Time  km/hr      Cat  Ovr  Time     km
  ------  ------- ----------------------- ------------ -------------------- ----    ----------------------    ----------------------    -----------------------
    1     2:42:57 Mike Neill              Kingston     1/4   Elite Men     502    1      2   22:17  1:07    2      2 1:26:16  39.3     2      2   54:25  3:38 
    2     2:43:31 Luc Morin               Montreal     2/4   Elite Men     510    3      7   23:57  1:12    1      1 1:25:53  39.5     1      1   53:42  3:35 
    3     2:51:48 Marc Pelletier          Ottawa       1/16  M40 - 44      648    2      9   24:20  1:13    1      3 1:29:22  37.9     1      5   58:07  3:53 
    4     2:54:38 Michael Tripp           Peterborou   1/16  M25 - 29      825    3     19   26:20  1:19    1      4 1:30:35  37.4     1      4   57:44  3:51 
    5     2:54:56 Eric Virkler            Lowville     1/15  M35 - 39      545    1      3   22:47  1:09    2     11 1:33:06  36.4     1      6   59:04  3:57 
    6     2:55:56 Allan Faulds            Brampton     1/15  M30 - 34      599    2     23   27:14  1:22    2     15 1:33:22  36.3     1      3   55:20  3:42 
    7     2:56:59 Ka-Yu Law               Kingston     3/4   Elite Men     504    2      5   23:45  1:12    3      5 1:30:54  37.3     4     14 1:02:20  4:10 
    8     2:57:30 Steven Blostein         Kingston     2/15  M35 - 39      618    2      8   24:16  1:13    1      6 1:31:14  37.2     2     12 1:02:01  4:09 
    9     3:00:33 Brian Levine            Thornhill    4/4   Elite Men     512    4     17   25:46  1:18    4     22 1:35:08  35.6     3      7   59:40  3:59 
   10     3:00:46 Daniel Wells            Holland LD   1/4   M20 - 24      746    1      1   21:02  1:04    1     27 1:36:30  35.1     1     20 1:03:15  4:13 
   11     3:00:51 Chris Milburn           Kingston     2/15  M30 - 34      828    4     32   28:10  1:25    1      7 1:31:18  37.1     2     11 1:01:24  4:06 
   12     3:01:40 Julie Curwin            Kingston     1/4   Elite Women   501    1      6   23:53  1:12    1     20 1:34:53  35.7     2     15 1:02:55  4:12 
   13     3:02:17 Clive Morgan            Yarker       2/16  M40 - 44      557    1      4   22:49  1:09    3     12 1:33:12  36.4     5     31 1:06:17  4:26 
   14     3:02:50 Michael Gill            Toronto      3/15  M30 - 34      737    1     15   24:56  1:15    4     17 1:33:25  36.3     5     24 1:04:30  4:18 
   15     3:02:55 Bruce Burns             Nepean       1/10  M45 - 49      535    2     38   28:35  1:26    2     14 1:33:21  36.3     1      9 1:01:01  4:05 
   16     3:02:59 Robin McGilp            Toronto      2/16  M25 - 29      916    2     16   25:45  1:18    3     18 1:33:59  36.1     2     22 1:03:17  4:14 
   17     3:03:28 Caroline Chouinard      Kingston     2/4   Elite Women   503    2     10   24:24  1:14    3     36 1:38:21  34.5     1      8 1:00:44  4:03 
   18     3:03:59 Gilles Malboeuf         Gloucester   2/10  M45 - 49      741    3     44   29:08  1:28    1     10 1:32:43  36.6     2     13 1:02:08  4:09 
   19     3:04:24 John Hall               Dundas       4/15  M30 - 34      528    3     31   28:00  1:24    3     16 1:33:23  36.3     3     17 1:03:02  4:13 
   20     3:04:38 Kevin Wilberforce       Thunder Ba   3/16  M40 - 44      696    5     33   28:11  1:25    4     13 1:33:15  36.4     2     19 1:03:12  4:13 
   21     3:04:43 Rhys Spencer            Toronto      3/16  M25 - 29      534    5     25   27:21  1:23    2      9 1:32:26  36.7     3     25 1:04:57  4:20 
   22     3:05:36 Jean-Pierre Decouvreur  Stouffvill   4/16  M40 - 44      810    8     49   29:46  1:30    2      8 1:32:01  36.8     4     23 1:03:50  4:16 
   23     3:08:45 Alexander Schwab        Kingston     3/15  M35 - 39      639    3     11   24:26  1:14    3     19 1:34:32  35.9     4     46 1:09:48  4:40 
   24     3:09:45 Nicola Wilberforce      Thunder Ba   1/16  W30 - 34      695    4     40   28:45  1:27    2     50 1:39:43  34.0     1     10 1:01:18  4:06 
   25     3:10:22 Chris Senior            Toronto      4/16  M25 - 29      693    6     41   28:47  1:27    4     24 1:35:56  35.3     5     29 1:05:39  4:23 
   26     3:11:16 Anastasia POLITO        Verdun       2/16  W30 - 34      799    1     13   24:42  1:15    1     30 1:37:21  34.8     4     44 1:09:14  4:37 
   27     3:12:47 Gordon Dilabio          Brockville   5/16  M40 - 44      567    10    63   32:00  1:36    6     31 1:37:32  34.8     3     21 1:03:16  4:14 
   28     3:13:00 Rachael Simpson         Dundas       1/6   W25 - 29      743    1     52   30:49  1:33    1     25 1:36:00  35.3     1     30 1:06:12  4:25 
   29     3:13:17 Louis Laflamme          Ottawa       5/15  M30 - 34      597    7     67   32:15  1:37    6     35 1:37:58  34.6     4     18 1:03:05  4:13 
   30     3:13:44 John McKinnon           Toronto      6/16  M40 - 44      646    6     35   28:22  1:26    8     39 1:38:36  34.4     6     34 1:06:47  4:28 
   31     3:14:40 Aron Weir               Guelph       5/16  M25 - 29      719    11    62   31:49  1:36    7     34 1:37:53  34.6     4     26 1:04:58  4:20 
   32     3:14:40 Susan Sly               Kingston     3/4   Elite Women   506    4     55   31:14  1:34    2     23 1:35:49  35.4     3     36 1:07:39  4:31 
   33     3:14:45 Kevin Maier             Manilus      7/16  M40 - 44      564    4     30   27:57  1:24    7     32 1:37:46  34.7     7     43 1:09:03  4:37 
   34     3:15:10 Aaron Hoag              Toronto      6/16  M25 - 29      662    1     14   24:52  1:15    6     29 1:36:54  35.0     10    62 1:13:25  4:54 
   35     3:15:52 Grant Thompson          Orleans      8/16  M40 - 44      590    7     45   29:08  1:28    5     28 1:36:36  35.1     8     48 1:10:08  4:41 
   36     3:16:07 Chris Huet              Caledon Ea   4/4   Elite Women   507    3     36   28:23  1:26    4     41 1:38:57  34.3     4     42 1:08:48  4:36 
   37     3:17:48 Rudy Hollywood          Nepean       1/6   M50 - 54      884    1     29   27:56  1:24    2     53 1:40:30  33.7     1     45 1:09:23  4:38 
   38     3:18:44 John Hodson             Petawawa     9/16  M40 - 44      574    3     12   24:40  1:14    9     44 1:39:07  34.2     12    67 1:14:58  5:00 
   39     3:18:57 Scott Langley           Ottawa       7/16  M25 - 29      600    7     46   29:13  1:28    9     51 1:39:56  33.9     7     47 1:09:48  4:40 
   40     3:19:33 Kyle Guembel            Subbury      2/4   M20 - 24      849    2     18   26:05  1:19    3     42 1:38:57  34.3     2     66 1:14:31  4:59 
   41     3:19:37 Ann Marie Foley         Ottawa       1/5   W35 - 39      790    2     37   28:29  1:26    2     86 1:48:14  31.3     1     16 1:02:55  4:12 
   42     3:19:46 John Varty              Kingston     8/16  M25 - 29      547    8     48   29:28  1:29    11    38 1:38:30  34.4     8     52 1:11:50  4:48 
   43     3:20:09 Andrea Marsh            Syracuse     3/16  W30 - 34      589    3     22   27:12  1:22    5     79 1:46:30  31.8     2     32 1:06:28  4:26 
   44     3:20:19 Miguel Bussiere         Kingston     9/16  M25 - 29      657    12    65   32:10  1:37    8     48 1:39:34  34.1     6     39 1:08:36  4:35 
   45     3:20:31 Kevin Thomson           Waterloo    10/16  M25 - 29      713    9     57   31:28  1:35    5     26 1:36:16  35.2     9     58 1:12:47  4:52 
   46     3:20:56 Hans Vandongeren        Ballston A   6/15  M30 - 34      698    5     43   29:06  1:28    8     47 1:39:28  34.1     8     55 1:12:23  4:50 
   47     3:22:18 Tim Bechard             Aylmer       7/15  M30 - 34      899    12   105   38:27  1:56    5     21 1:35:07  35.6     7     41 1:08:45  4:35 
   48     3:22:50 Karen Hoffman           Toronto      1/6   W40 - 44      532    2     59   31:43  1:36    4     70 1:44:31  32.4     1     33 1:06:38  4:27 
   49     3:23:28 Judy Rynbeek            Whitby       2/5   W35 - 39      777    1     26   27:26  1:23    1     59 1:42:04  33.2     2     65 1:13:59  4:56 
   50     3:24:43 Mark McVey              Ottawa       3/4   M20 - 24      794    4     27   27:27  1:23    2     37 1:38:29  34.4     3     81 1:18:48  5:16 
   51     3:24:52 JoAnne GAGNIER          Toronto      2/6   W40 - 44      926    3     68   32:18  1:37    3     67 1:43:59  32.6     2     40 1:08:37  4:35 
   52     3:25:03 Cheryl Iselmoe          Orleans      4/16  W30 - 34      566    6     47   29:26  1:29    6     84 1:47:52  31.4     3     37 1:07:46  4:32 
   53     3:26:04 David Lee               Ingleside    1/1   Junior Men    616    1     95   36:05  1:49    1     75 1:45:00  32.3     1     27 1:04:59  4:20 
   54     3:26:06 Peter Auchincloss       Kingston     4/15  M35 - 39      552    4     28   27:41  1:24    5     57 1:42:00  33.2     10    72 1:16:25  5:06 
   55     3:26:33 Conn McAdorey           Etobicoke    8/15  M30 - 34      883    9     84   34:37  1:44    7     43 1:39:05  34.2     9     59 1:12:52  4:52 
   56     3:26:55 Fred Topham             Kingston     5/15  M35 - 39      738    12    99   36:46  1:51    6     61 1:42:57  32.9     3     35 1:07:13  4:29 
   57     3:27:21 Andrea Risk             Ottawa       5/16  W30 - 34      642    2     21   27:06  1:22    8     91 1:50:02  30.8     5     49 1:10:13  4:41 
   58     3:27:35 John Lesarge            Kingston     3/10  M45 - 49      704    5     75   33:02  1:40    3     40 1:38:41  34.4     5     71 1:15:53  5:04 
   59     3:27:38 Linnea Humphrey         Toronto      6/16  W30 - 34      700    5     42   29:02  1:28    4     76 1:45:28  32.1     6     60 1:13:09  4:53 
   60     3:29:41 Alan Vinegar            North York  10/16  M40 - 44      531    11    73   32:39  1:38    11    66 1:43:45  32.7     11    61 1:13:18  4:54 
   61     3:29:45 Rob Burston             Penatangis   6/15  M35 - 39      766    6     79   33:50  1:42    9     73 1:44:47  32.4     5     50 1:11:08  4:45 
   62     3:30:10 Stewart Mackie          Ottawa      11/16  M25 - 29      851    4     20   26:56  1:21    12    58 1:42:04  33.2     14    86 1:21:10  5:25 
   63     3:31:22 Joe Hostyn              Edmonton     9/15  M30 - 34      524    8     81   34:03  1:43    9     49 1:39:43  34.0     10    76 1:17:37  5:11 
   64     3:31:25 Tom Simper              Glouster     4/10  M45 - 49      562    4     50   29:55  1:30    4     82 1:47:43  31.5     4     64 1:13:48  4:56 
   65     3:31:40 Dave SPIELVOGEL         Toronto     11/16  M40 - 44      933    14   103   37:03  1:52    10    60 1:42:53  33.0     9     51 1:11:45  4:47 
   66     3:31:48 Juergen Dingel          Kingston    10/15  M30 - 34      820    13   108   39:24  1:59    12    72 1:44:37  32.4     6     38 1:07:49  4:32 
   67     3:32:33 John Rowley             Willoughda   7/15  M35 - 39      711    13   100   36:47  1:51    7     63 1:43:12  32.9     7     57 1:12:35  4:51 
   68     3:32:36 Maurice Gallagher       Westhill     8/15  M35 - 39      735    11    98   36:33  1:50    8     68 1:44:06  32.6     6     53 1:11:58  4:48 
   69     3:32:38 Ellen Pazdzior          Ottawa       3/6   W40 - 44      629    1     39   28:44  1:27    1     33 1:37:49  34.7     5    110 1:26:06  5:45 
   70     3:32:38 Christopher Davidson    Kingston    12/16  M25 - 29      879    13    72   32:33  1:38    13    71 1:44:34  32.4     11    70 1:15:32  5:03 
   71     3:33:55 Gib Parrell             Kanata      12/16  M40 - 44      663    12    83   34:34  1:44    12    69 1:44:23  32.5     13    68 1:14:59  5:00 
   72     3:35:39 John Piccioli           Nepean      11/15  M30 - 34      575    10    87   35:09  1:46    11    56 1:41:42  33.3     11    82 1:18:49  5:16 
   73     3:36:20 Rod Campbell            Mississaug   2/6   M50 - 54      878    3     60   31:48  1:36    1     45 1:39:09  34.2     4    101 1:25:24  5:42 
   74     3:36:30 L Munroe                Perth        2/6   W25 - 29      697    3     69   32:19  1:37    2     78 1:45:57  32.0     3     78 1:18:14  5:13 
   75     3:37:04 Nicola Banton           Kingston     3/6   W25 - 29      573    2     54   31:01  1:34    3     88 1:48:42  31.2     2     74 1:17:23  5:10 
   76     3:37:20 Denis Morel             Hartington  13/16  M40 - 44      615    13   102   36:58  1:51    13    83 1:47:49  31.4     10    56 1:12:34  4:51 
   77     3:37:48 John Balint             Gloucester   1/3   M55 - 59      602    1     64   32:09  1:37    1     62 1:43:01  32.9     1     91 1:22:38  5:31 
   78     3:37:54 Gerard Hanley           Napanee      9/15  M35 - 39      716    5     78   33:45  1:42    13    92 1:50:42  30.6     8     63 1:13:27  4:54 
   79     3:38:33 Drew Dobson             Orleans     12/15  M30 - 34      606    11    94   35:55  1:48    10    54 1:40:37  33.7     12    89 1:22:03  5:29 
   80     3:39:37 Tyler Waddell           Toronto     13/16  M25 - 29      536    14    92   35:37  1:47    14    80 1:46:54  31.7     12    73 1:17:06  5:09 
   81     3:39:55 Ross Bell               Elizabetht   5/10  M45 - 49      553    1     34   28:13  1:25    5     94 1:52:00  30.3     6     85 1:19:44  5:19 
   82     3:40:09 Tom Collins             London       1/4   M60 & Over    527    1     89   35:30  1:47    1     46 1:39:09  34.2     1    104 1:25:31  5:43 
   83     3:40:22 Jeff Musson             Trenton     10/15  M35 - 39      568    7     80   33:54  1:42    4     55 1:41:04  33.5     14   102 1:25:25  5:42 
   84     3:41:22 Keon Bernier            Belleville  14/16  M25 - 29      765    15    96   36:13  1:49    10    52 1:40:28  33.7     15    98 1:24:42  5:39 
   85     3:42:39 Maryse Ayotte           Carrying P   7/16  W30 - 34      789    7     58   31:37  1:35    9     95 1:52:30  30.1     8     80 1:18:32  5:15 
   86     3:43:13 Morris O'Callaghan      Ottawa       3/6   M50 - 54      544    2     53   30:55  1:33    5     97 1:53:20  29.9     2     84 1:18:59  5:16 
   87     3:43:42 Bill McIlroy            Kingston    11/15  M35 - 39      764    15   113   40:19  2:01    10    74 1:44:52  32.3     11    79 1:18:32  5:15 
   88     3:43:58 Joe Zubek               Mississaug  12/15  M35 - 39      817    9     86   34:52  1:45    14   100 1:53:54  29.8     9     69 1:15:13  5:01 
   89     3:45:13 Adam Johnston           Richmond H  15/16  M25 - 29      679    10    61   31:49  1:36    15   105 1:55:14  29.4     13    77 1:18:12  5:13 
   90     3:47:01 James Alexander         Kingston    13/15  M35 - 39      569    8     82   34:10  1:43    12    90 1:49:56  30.8     12    95 1:22:56  5:32 
   91     3:47:26 Aaron Stewart           Ottawa       4/4   M20 - 24      710    3     24   27:18  1:22    4     81 1:47:34  31.5     4    122 1:32:35  6:11 
   92     3:47:33 Jeff Pappin             Stittsvill  14/15  M35 - 39      660    10    88   35:22  1:47    11    85 1:48:03  31.4     13    97 1:24:09  5:37 
   93     3:47:47 Sheila Sangers          Kingston     8/16  W30 - 34      900    9     74   32:57  1:39    7     87 1:48:18  31.3     12   111 1:26:32  5:47 
   94     3:47:51 Jane Shaw               Pte-Claire   9/16  W30 - 34      649    11    93   35:51  1:48    11   104 1:54:35  29.6     7     75 1:17:26  5:10 
   95     3:48:50 Stephen McPherson       Kingston     6/10  M45 - 49      582    6    115   41:42  2:06    8    116 2:02:05  27.8     3     28 1:05:04  4:21 
   96     3:49:09 Samera Fares            Toronto     10/16  W30 - 34      808    12   110   39:50  2:00    3     65 1:43:43  32.7     11   105 1:25:38  5:43 
   97     3:49:38 Nancy Villemure         Maberly      3/5   W35 - 39      521    4     90   35:33  1:47    3     93 1:51:13  30.5     3     94 1:22:53  5:32 
   98     3:49:41 Linda Martin            Kanata      11/16  W30 - 34      873    8     70   32:30  1:38    10   103 1:54:27  29.6     9     93 1:22:44  5:31 
   99     3:49:49 Gord Hunter             Nepean       4/6   M50 - 54      529    4     76   33:04  1:40    3     77 1:45:45  32.1     6    119 1:31:01  6:05 
  100     3:50:05 Jonathan Wyatt          Brockville   5/6   M50 - 54      731    5    104   37:42  1:54    4     89 1:49:43  30.9     3     92 1:22:41  5:31 
  101     3:51:55 Deborah Steacy-Cantlay  Kingston     4/6   W40 - 44      622    4     97   36:14  1:49    2     64 1:43:39  32.7     6    121 1:32:03  6:09 
  102     3:54:13 Rob Dooh                Guelph                           909         133   49:20  2:28          96 1:52:38  30.1           54 1:12:15  4:49 
  103     3:54:39 Andrea PERRINO          Ottawa       4/6   W25 - 29      604    5    106   39:11  1:58    4    101 1:53:57  29.8     4     88 1:21:32  5:27 
  104     3:56:35 Michael Hopner          Winsen      13/15  M30 - 34      728    6     66   32:12  1:37    13    99 1:53:46  29.8     13   118 1:30:38  6:03 
  105     3:58:21 Faith Folk              Toronto     12/16  W30 - 34      803    10    91   35:35  1:47    12   107 1:56:05  29.2     13   112 1:26:42  5:47 
  106     4:01:22 Glenda Clapham          Kingston     5/6   W40 - 44      669    5    119   41:48  2:06    5     98 1:53:38  29.8     4    109 1:25:56  5:44 
  107     4:01:35 Nancy Coakley           Trenton      6/6   W40 - 44      626    6    125   43:23  2:11    6    114 1:59:24  28.4     3     83 1:18:49  5:16 
  108     4:01:59 Kyla Smith              Kingston     5/6   W25 - 29      892    6    116   41:44  2:06    5    112 1:58:06  28.7     5     90 1:22:10  5:29 
  109     4:02:59 Judy Kelley             Ottawa       1/1   W50 - 54      785    1    101   36:51  1:51    1    122 2:04:53  27.1     1     87 1:21:15  5:25 
  110     4:04:40 Trevor Vowles           Kingston     6/6   M50 - 54      721    6    120   42:13  2:07    6    109 1:57:02  29.0     5    103 1:25:26  5:42 
  111     4:05:26 Gillian Johnston        Toronto      4/5   W35 - 39      881    5    130   45:09  2:16    4    106 1:55:22  29.4     4     99 1:24:55  5:40 
  112     4:05:50 Bernard Brister         Kanata       7/10  M45 - 49      576    7    123   42:43  2:09    7    111 1:57:49  28.8     7    100 1:25:19  5:42 
  113     4:06:07 Alyson Charrette        Kingston    13/16  W30 - 34      677    13   111   39:53  2:00    13   117 2:02:50  27.6     10    96 1:23:25  5:34 
  114     4:06:23 Robert McCaldon         Hartington   2/4   M60 & Over    651    4    127   43:28  2:11    2    108 1:57:02  29.0     2    108 1:25:55  5:44 
  115     4:06:23 Ron Hackett             Kingston     8/10  M45 - 49      835    8    126   43:27  2:11    6    110 1:57:04  29.0     8    107 1:25:53  5:44 
  116     4:06:51 Taya Jones              Richmond H   6/6   W25 - 29      680    4     71   32:32  1:38    6    123 2:06:14  26.9     6    115 1:28:06  5:53 
  117     4:07:37 Lindsay Dixon           Markham      1/1   W20 - 24      842    1     85   34:41  1:45    1    125 2:07:05  26.7     1    106 1:25:52  5:44 
  118     4:09:12 Arthur Tateishi         Toronto     14/15  M30 - 34      683    15   121   42:33  2:08    14   102 1:54:03  29.7     14   123 1:32:38  6:11 
  119     4:09:32 Stephanie Holtzman      Toronto      5/5   W35 - 39      608    3     77   33:14  1:40    5    121 2:04:23  27.3     5    120 1:31:56  6:08 
  120     4:09:48 Patrick Morin           Etobcoke    16/16  M25 - 29      537    16   117   41:45  2:06    16   115 2:00:08  28.2     16   114 1:27:56  5:52 
  121     4:10:30 Ian McNaughton          Ottawa      14/16  M40 - 44      540    15   128   43:29  2:11    14   113 1:58:53  28.5     15   116 1:28:08  5:53 
  122     4:12:37 Anna Morris             Milton       1/1   W45 - 49      745    1     56   31:16  1:34    1    119 2:03:22  27.5     1    125 1:37:59  6:32 
  123     4:12:37 Courtney Warner         Georgetown   2/3   M55 - 59      800    2    109   39:37  1:59    2    118 2:02:59  27.6     2    117 1:30:02  6:01 
  124     4:24:33 Rick Preisinger         Trenton     15/15  M35 - 39      598    14   107   39:12  1:58    15   127 2:09:07  26.3     15   124 1:36:16  6:26 
  125     4:35:09 Tanya Hostyn            Edmonton    14/16  W30 - 34      525    16   129   45:05  2:16    14   128 2:12:04  25.7     14   126 1:38:01  6:33 
  126     4:36:27 Jane McCaldon           Hartington   1/1   W60 & Over    652    1    132   47:18  2:22    1    120 2:03:33  27.4     1    129 1:45:37  7:03 
  127     4:36:44 Linda Chapman           Ajax        15/16  W30 - 34      563    15   124   43:07  2:10    15   129 2:13:40  25.4     15   128 1:39:58  6:40 
  128     4:41:46 Bill Bradley            Ottawa       9/10  M45 - 49      631    9    131   45:48  2:18    9    131 2:17:40  24.6     9    127 1:38:19  6:34 
  129     4:41:49 David Maskell           Hartington   3/4   M60 & Over    550    2    114   40:23  2:02    3    124 2:06:45  26.7     4    133 1:54:41  7:39 
  130     4:44:00 Max Shafir              Toronto      4/4   M60 & Over    864    3    122   42:41  2:09    4    126 2:07:52  26.5     3    132 1:53:27  7:34 
  131     4:45:55 Annalisa Aboud          Toronto     16/16  W30 - 34      579    14   112   39:56  2:00    16   130 2:14:11  25.3     16   130 1:51:50  7:28 
  132     4:57:11 Mark Spies              Jasper      15/15  M30 - 34      623    14   118   41:48  2:06    15   132 2:22:58  23.7     15   131 1:52:26  7:30 
  133     5:12:58 Gord Foell              Glenburnie  15/16  M40 - 44      654    16   135 1:15:00  3:45    15   133 2:30:09  22.6     14   113 1:27:50  5:52 
  134             John Glassco            Sydenham     3/3   M55 - 59      827                              3                                                 
  135             Louis Cyr               Kingston    16/16  M40 - 44      809    9     51   30:15  1:31                                                      
  136             Daniel Lapointe         Laval       10/10  M45 - 49      588    10   134   56:03  2:49